createdAt,value
2019-01-08T00:03:45.103Z,96440.2
2019-01-08T00:08:42.051Z,96413
2019-01-08T00:13:38.575Z,96400.8
2019-01-08T00:18:35.419Z,96371.6
2019-01-08T00:23:31.994Z,96014.6
2019-01-08T00:28:28.555Z,96036.6
2019-01-08T00:33:24.799Z,96375
2019-01-08T00:38:21.554Z,96316.8
2019-01-08T00:43:18.388Z,96266.6
2019-01-08T00:48:15.017Z,96408
2019-01-08T00:53:11.710Z,96393.7
2019-01-08T00:58:08.371Z,96381.1
2019-01-08T01:03:04.713Z,96153.1
2019-01-08T01:08:01.323Z,96333
2019-01-08T01:12:58.172Z,95871.1
2019-01-08T01:17:54.816Z,96398.7
2019-01-08T01:22:51.495Z,96362.2
2019-01-08T01:27:48.090Z,96096
2019-01-08T01:32:44.655Z,96203.8
2019-01-08T01:37:41.344Z,96298
2019-01-08T01:42:37.877Z,96377.4
2019-01-08T01:47:34.478Z,96347.8
2019-01-08T01:52:31.095Z,96410.6
2019-01-08T01:57:27.721Z,96171.4
2019-01-08T02:02:24.441Z,96076.1
2019-01-08T02:07:21.176Z,96287.5
2019-01-08T02:12:17.512Z,95961.4
2019-01-08T02:17:14.189Z,96039.8
2019-01-08T02:22:10.722Z,95951.4
2019-01-08T02:27:06.915Z,95950.5
2019-01-08T02:32:03.505Z,95934.7
2019-01-08T02:37:00.044Z,95914.4
2019-01-08T02:41:56.802Z,95971.3
2019-01-08T02:46:53.179Z,95914.4
2019-01-08T02:51:49.519Z,95906.1
2019-01-08T02:56:46.128Z,95899.2
2019-01-08T03:01:42.408Z,95893.2
2019-01-08T03:06:39.184Z,95888.6
2019-01-08T03:11:35.463Z,95887.6
2019-01-08T03:16:32.093Z,95894
2019-01-08T03:21:28.796Z,95887.9
2019-01-08T03:26:25.323Z,95889.9
2019-01-08T03:31:21.959Z,95867.5
2019-01-08T03:36:18.750Z,95880.2
2019-01-08T03:41:15.151Z,95873.5
2019-01-08T03:46:11.912Z,95818.8
2019-01-08T03:51:08.614Z,95777.6
2019-01-08T03:56:05.233Z,96001.3
2019-01-08T04:01:01.808Z,95954.6
2019-01-08T04:05:58.369Z,95983.9
2019-01-08T04:10:55.111Z,95854.6
2019-01-08T04:15:51.459Z,95868.2
2019-01-08T04:20:47.971Z,95862.4
2019-01-08T04:25:44.627Z,95852.2
2019-01-08T04:30:41.090Z,95811.5
2019-01-08T04:35:37.829Z,96017.1
2019-01-08T04:40:34.302Z,95839.4
2019-01-08T04:45:30.985Z,96235
2019-01-08T04:50:27.495Z,95821.5
2019-01-08T04:55:24.107Z,95835.7
2019-01-08T05:00:20.594Z,95845.9
2019-01-08T05:05:17.454Z,95829.7
2019-01-08T05:10:13.801Z,95847.7
2019-01-08T05:15:10.549Z,95825.5
2019-01-08T05:20:06.683Z,95835.3
2019-01-08T05:25:03.852Z,95966.2
2019-01-08T05:30:07.678Z,95815.1
2019-01-08T05:34:56.998Z,95827.8
2019-01-08T05:39:53.618Z,95915.1
2019-01-08T05:44:50.084Z,95812.8
2019-01-08T05:49:46.897Z,95809
2019-01-08T05:54:43.666Z,95807.9
2019-01-08T05:59:40.169Z,95815.1
2019-01-08T06:04:36.795Z,95815.1
2019-01-08T06:09:33.330Z,95796.5
2019-01-08T06:14:30.131Z,95803.2
2019-01-08T06:19:27.181Z,95714.7
2019-01-08T06:24:23.404Z,95810
2019-01-08T06:29:20.052Z,95813.8
2019-01-08T06:34:16.762Z,96192.4
2019-01-08T06:39:13.983Z,95948
2019-01-08T06:44:10.617Z,95941.8
2019-01-08T06:49:07.327Z,95803.6
2019-01-08T06:54:04.094Z,95796.3
2019-01-08T06:59:00.540Z,95794
2019-01-08T07:03:57.156Z,96105
2019-01-08T07:08:53.737Z,95783.3
2019-01-08T07:13:51.368Z,95778.5
2019-01-08T07:18:46.590Z,95776.5
2019-01-08T07:23:43.098Z,95778.1
2019-01-08T07:28:39.763Z,95784.1
2019-01-08T07:33:36.617Z,95784.3
2019-01-08T07:38:33.141Z,96050
2019-01-08T07:43:29.586Z,95995.8
2019-01-08T07:48:26.371Z,95912.2
2019-01-08T07:53:23.041Z,95812
2019-01-08T07:58:19.819Z,96130.1
2019-01-08T08:03:16.390Z,95747.1
2019-01-08T08:08:12.268Z,95892.3
2019-01-08T08:13:08.675Z,96156.5
2019-01-08T08:18:05.302Z,96096.5
2019-01-08T08:23:01.847Z,96025.6
2019-01-08T08:27:58.356Z,95735.3
2019-01-08T08:32:54.996Z,96059.1
2019-01-08T08:37:51.588Z,95732.1
2019-01-08T08:42:48.243Z,96098.6
2019-01-08T08:47:44.838Z,96111.9
2019-01-08T08:52:41.735Z,95717.8
2019-01-08T08:57:38.534Z,95707
2019-01-08T09:02:35.191Z,96077.4
2019-01-08T09:07:31.363Z,95839.8
2019-01-08T09:12:28.069Z,96039.9
2019-01-08T09:17:25.324Z,95819.5
2019-01-08T09:22:21.940Z,95756.6
2019-01-08T09:27:17.949Z,95655.8
2019-01-08T09:32:14.359Z,95644
2019-01-08T09:37:10.650Z,95634.5
2019-01-08T09:42:07.660Z,95630.1
2019-01-08T09:47:04.283Z,95315.3
2019-01-08T09:52:00.871Z,95606.4
2019-01-08T09:56:57.203Z,95603.7
2019-01-08T10:01:53.953Z,95730.4
2019-01-08T10:06:51.031Z,95714.6
2019-01-08T10:11:47.495Z,95714.1
2019-01-08T10:16:44.055Z,95544.4
2019-01-08T10:21:40.575Z,95548
2019-01-08T10:26:37.220Z,95673.7
2019-01-08T10:31:34.052Z,95653.7
2019-01-08T10:36:30.726Z,95636.1
2019-01-08T10:41:27.539Z,95615.3
2019-01-08T10:46:23.962Z,95611.3
2019-01-08T10:51:20.529Z,95592.7
2019-01-08T10:56:17.023Z,95586.3
2019-01-08T11:01:13.595Z,95571.1
2019-01-08T11:06:10.559Z,95564.3
2019-01-08T11:11:08.054Z,95543.8
2019-01-08T11:16:03.760Z,95538.7
2019-01-08T11:21:00.480Z,95528.9
2019-01-08T11:25:57.177Z,95511.3
2019-01-08T11:30:53.921Z,95502.1
2019-01-08T11:35:50.659Z,95494.3
2019-01-08T11:40:46.982Z,95487.9
2019-01-08T11:45:43.294Z,95481.8
2019-01-08T11:50:40.043Z,95469.8
2019-01-08T11:55:36.918Z,95460.3
2019-01-08T12:00:33.559Z,95450.7
2019-01-08T12:05:30.083Z,95444.6
2019-01-08T12:10:26.842Z,95437.1
2019-01-08T12:15:23.809Z,95432.8
2019-01-08T12:20:20.737Z,95421.5
2019-01-08T12:25:17.545Z,95410.6
2019-01-08T12:30:14.453Z,95397.7
2019-01-08T12:35:11.380Z,95392.8
2019-01-08T12:40:08.295Z,95402.1
2019-01-08T12:45:04.687Z,95383.4
2019-01-08T12:50:01.410Z,95379.2
2019-01-08T12:54:58.164Z,95373.9
2019-01-08T12:59:54.995Z,95365.5
2019-01-08T13:04:51.181Z,95355.7
2019-01-08T13:09:48.643Z,95345.7
2019-01-08T13:14:45.930Z,94985.9
2019-01-08T13:19:42.524Z,95328.3
2019-01-08T13:29:50.652Z,95315.5
2019-01-08T13:34:47.322Z,95314.8
2019-01-08T13:39:42.121Z,95308.2
2019-01-08T13:44:38.916Z,95307.8
2019-01-08T13:49:35.415Z,95304.5
2019-01-08T13:54:30.999Z,95294.5
2019-01-08T13:59:27.874Z,95289.3
2019-01-08T14:04:24.359Z,95233.2
2019-01-08T14:09:21.366Z,94681
2019-01-08T14:14:17.505Z,95256.9
2019-01-08T14:19:14.279Z,95251.1
2019-01-08T14:24:11.064Z,95254.8
2019-01-08T14:29:07.913Z,95257.2
2019-01-08T14:34:04.610Z,95241.1
2019-01-08T14:39:01.446Z,95230.6
2019-01-08T14:43:57.902Z,95218
2019-01-08T14:48:53.907Z,95217.9
2019-01-08T14:53:50.490Z,95215.3
2019-01-08T14:58:47.232Z,95207.4
2019-01-08T15:03:43.896Z,95205.3
2019-01-08T15:08:40.963Z,95266
2019-01-08T15:13:37.820Z,93847.1
2019-01-08T15:18:34.957Z,95215.5
2019-01-08T15:23:31.935Z,95213.5
2019-01-08T15:28:28.449Z,95217.5
2019-01-08T15:33:24.615Z,95210.1
2019-01-08T15:38:21.073Z,95215.4
2019-01-08T15:43:17.700Z,95196.2
2019-01-08T15:48:14.226Z,95198.2
2019-01-08T15:53:09.589Z,95200.4
2019-01-08T15:58:05.933Z,95193.5
2019-01-08T16:03:07.040Z,95184.2
2019-01-08T16:07:59.286Z,95187.8
2019-01-08T16:12:55.444Z,95190.9
2019-01-08T16:17:51.647Z,95195.1
2019-01-08T16:22:47.801Z,95199.3
2019-01-08T16:27:44.810Z,95202.2
2019-01-08T16:32:41.327Z,95203
2019-01-08T16:37:37.596Z,95520.8
2019-01-08T16:42:33.969Z,95199
2019-01-08T16:47:30.642Z,95196.1
2019-01-08T16:52:27.355Z,95192.8
2019-01-08T16:57:24.039Z,95194.7
2019-01-08T17:02:20.526Z,95188.2
2019-01-08T17:07:17.414Z,95195.7
2019-01-08T17:12:13.911Z,95196.6
2019-01-08T17:17:10.605Z,95195.6
2019-01-08T17:22:07.042Z,95185.5
2019-01-08T17:27:03.757Z,95172.2
2019-01-08T17:32:00.311Z,95170.5
2019-01-08T17:36:57.145Z,95159.8
2019-01-08T17:41:53.901Z,95168
2019-01-08T17:46:50.443Z,95169.9
2019-01-08T17:51:47.136Z,95165.6
2019-01-08T17:56:43.814Z,95170.1
2019-01-08T18:01:40.973Z,95160.1
2019-01-08T18:06:37.552Z,95171.8
2019-01-08T18:11:34.747Z,95177.3
2019-01-08T18:16:31.574Z,95169.9
2019-01-08T18:21:27.574Z,95167.5
2019-01-08T18:26:23.992Z,95159.2
2019-01-08T18:31:20.842Z,95160.4
2019-01-08T18:36:16.836Z,95157.4
2019-01-08T18:41:13.037Z,95152.3
2019-01-08T18:46:09.703Z,95153.7
2019-01-08T18:51:06.329Z,95158.5
2019-01-08T18:56:02.901Z,95159.1
2019-01-08T19:00:59.426Z,95155.9
2019-01-08T19:05:56.293Z,95150.7
2019-01-08T19:10:52.634Z,95143.6
2019-01-08T19:15:49.428Z,95112.1
2019-01-08T19:20:45.624Z,95146.2
2019-01-08T19:25:42.364Z,95136.1
2019-01-08T19:30:38.934Z,95126.8
2019-01-08T19:35:35.355Z,95117.9
2019-01-08T19:40:32.682Z,95113.5
2019-01-08T19:45:29.148Z,95109
2019-01-08T19:50:25.423Z,95101.7
2019-01-08T19:55:22.106Z,95096.2
2019-01-08T20:00:18.839Z,95090.6
2019-01-08T20:05:15.687Z,95093.7
2019-01-08T20:10:11.833Z,95083.1
2019-01-08T20:15:08.515Z,95084.8
2019-01-08T20:20:04.967Z,95087
2019-01-08T20:25:01.594Z,95072.2
2019-01-08T20:29:58.265Z,95064.4
2019-01-08T20:34:54.897Z,95068.7
2019-01-08T20:39:51.597Z,95074
2019-01-08T20:44:48.261Z,95063.5
2019-01-08T20:49:45.392Z,95059
2019-01-08T20:54:42.055Z,95046.9
2019-01-08T20:59:38.592Z,95046
2019-01-08T21:04:35.839Z,95036.3
2019-01-08T21:09:31.873Z,95043.6
2019-01-08T21:14:28.452Z,95047.1
2019-01-08T21:19:24.718Z,95042.1
2019-01-08T21:24:28.369Z,95034.3
2019-01-08T21:29:18.041Z,95032.8
2019-01-08T21:34:15.475Z,94997.9
2019-01-08T21:39:11.704Z,95046.2
2019-01-08T21:44:08.468Z,95030
2019-01-08T21:49:05.223Z,95030.6
2019-01-08T21:54:02.021Z,95022.5
2019-01-08T21:58:58.494Z,95014.6
2019-01-08T22:03:54.585Z,95010
2019-01-08T22:08:51.175Z,94874.2
2019-01-08T22:13:47.996Z,94861.6
2019-01-08T22:18:44.632Z,94994.2
2019-01-08T22:23:41.178Z,94992.3
2019-01-08T22:28:37.863Z,94981.5
2019-01-08T22:33:34.799Z,94978.7
2019-01-08T22:38:31.318Z,94969.4
2019-01-08T22:43:28.310Z,94968.1
2019-01-08T22:48:25.064Z,94963.1
2019-01-08T22:53:21.780Z,94952.4
2019-01-08T22:58:18.040Z,94951
2019-01-08T23:03:14.749Z,94950.4
2019-01-08T23:08:11.431Z,94952
2019-01-08T23:13:08.078Z,94944.8
2019-01-08T23:18:04.669Z,94934.9
2019-01-08T23:23:01.280Z,94925.1
2019-01-08T23:27:57.684Z,94923
2019-01-08T23:32:54.410Z,94927.9
2019-01-08T23:37:50.566Z,94931.6
2019-01-08T23:42:47.342Z,94931.8
2019-01-08T23:47:44.101Z,94925.8
2019-01-08T23:52:40.789Z,94930.4
2019-01-08T23:57:37.570Z,94940.2
